Terminal Aerodrome Forecast
Issued by NWS Dallas/Fort Worth, TX

Home | Current Version | Previous Version | Text Only | Print | Product List | Glossary On
Versions: 1 2 3 4 5 6 7 8 9 10 11 12 13 14 15 16 17 18 19 20 21 22 23 24 25 26 27 28 29 30 31 32
000
FTUS44 KFWD 280703 AAA
TAFACT
TAF AMD
KACT 280703Z 2807/2906 08006KT P6SM SCT012 BKN035
      TEMPO 2809/2811 BKN012
     FM281100 12007KT 3SM -DZ BR OVC006
      TEMPO 2813/2817 2SM -DZ BR OVC003
     FM281800 15013KT P6SM OVC015
     FM282100 15014KT P6SM SCT015 OVC040
     FM290400 14013KT P6SM VCTS SCT008CB OVC015=

USA.gov is the U.S. government's official web portal to all federal, state and local government web resources and services.